Terminal Aerodrome Forecast
Issued by NWS Bismarck, ND

Home | Current Version | Previous Version | Text Only | Print | Product List | Glossary Off
Versions: 1 2 3 4 5 6 7 8 9 10 11 12 13 14 15 16 17 18 19

000
FTUS43 KBIS 252300
TAFBIS
TAF
KBIS 252323Z 2600/2624 33011KT P6SM OVC025
     FM260900 33012KT P6SM SCT025 BKN035
     FM261500 33006KT P6SM SCT035 BKN100=

USA.gov is the U.S. government's official web portal to all federal, state and local government web resources and services.